sensor_id;sensor_type;location;lat;lon;timestamp;pressure;altitude;pressure_sealevel;temperature;humidity
57656;BME280;43482;53.334;6.744;2022-08-16T00:00:29;100555.69;;;21.40;100.00
57656;BME280;43482;53.334;6.744;2022-08-16T00:02:58;100556.50;;;21.40;100.00
57656;BME280;43482;53.334;6.744;2022-08-16T00:05:24;100554.88;;;21.39;98.82
57656;BME280;43482;53.334;6.744;2022-08-16T00:07:51;100555.28;;;21.43;97.60
57656;BME280;43482;53.334;6.744;2022-08-16T00:10:17;100546.53;;;21.47;100.00
57656;BME280;43482;53.334;6.744;2022-08-16T00:12:44;100545.75;;;21.40;100.00
57656;BME280;43482;53.334;6.744;2022-08-16T00:15:26;100541.22;;;21.41;100.00
57656;BME280;43482;53.334;6.744;2022-08-16T00:17:54;100543.31;;;21.39;100.00
57656;BME280;43482;53.334;6.744;2022-08-16T00:20:19;100535.84;;;21.41;99.64
57656;BME280;43482;53.334;6.744;2022-08-16T00:22:46;100537.50;;;21.42;100.00
57656;BME280;43482;53.334;6.744;2022-08-16T00:25:14;100523.56;;;21.33;100.00
57656;BME280;43482;53.334;6.744;2022-08-16T00:27:40;100544.94;;;21.40;100.00
57656;BME280;43482;53.334;6.744;2022-08-16T00:30:08;100543.31;;;21.39;100.00
57656;BME280;43482;53.334;6.744;2022-08-16T00:32:40;100541.06;;;21.35;100.00
57656;BME280;43482;53.334;6.744;2022-08-16T00:35:09;100546.09;;;21.32;100.00
57656;BME280;43482;53.334;6.744;2022-08-16T00:37:34;100541.75;;;21.31;100.00
57656;BME280;43482;53.334;6.744;2022-08-16T00:40:00;100544.75;;;21.23;100.00
57656;BME280;43482;53.334;6.744;2022-08-16T00:42:28;100549.38;;;21.04;100.00
57656;BME280;43482;53.334;6.744;2022-08-16T00:44:57;100541.47;;;20.90;100.00
57656;BME280;43482;53.334;6.744;2022-08-16T00:47:24;100549.06;;;20.75;100.00
57656;BME280;43482;53.334;6.744;2022-08-16T00:49:50;100529.41;;;20.44;100.00
57656;BME280;43482;53.334;6.744;2022-08-16T00:52:15;100546.88;;;20.47;100.00
57656;BME280;43482;53.334;6.744;2022-08-16T00:54:41;100540.72;;;20.46;100.00
57656;BME280;43482;53.334;6.744;2022-08-16T00:57:07;100549.34;;;20.48;100.00
57656;BME280;43482;53.334;6.744;2022-08-16T00:59:34;100556.78;;;20.46;100.00
57656;BME280;43482;53.334;6.744;2022-08-16T01:02:02;100559.47;;;20.46;100.00
57656;BME280;43482;53.334;6.744;2022-08-16T01:04:28;100560.53;;;20.45;100.00
57656;BME280;43482;53.334;6.744;2022-08-16T01:06:54;100552.31;;;20.40;100.00
57656;BME280;43482;53.334;6.744;2022-08-16T01:09:19;100560.34;;;20.40;100.00
57656;BME280;43482;53.334;6.744;2022-08-16T01:11:45;100553.38;;;20.39;100.00
57656;BME280;43482;53.334;6.744;2022-08-16T01:14:19;100551.50;;;20.40;100.00
57656;BME280;43482;53.334;6.744;2022-08-16T01:16:47;100551.91;;;20.43;100.00
57656;BME280;43482;53.334;6.744;2022-08-16T01:19:27;100543.69;;;20.38;100.00
57656;BME280;43482;53.334;6.744;2022-08-16T01:24:35;100531.53;;;20.35;100.00
57656;BME280;43482;53.334;6.744;2022-08-16T01:27:07;100541.91;;;20.32;100.00
57656;BME280;43482;53.334;6.744;2022-08-16T01:29:42;100540.53;;;20.23;100.00
57656;BME280;43482;53.334;6.744;2022-08-16T01:32:08;100538.31;;;20.20;100.00
57656;BME280;43482;53.334;6.744;2022-08-16T01:34:34;100539.72;;;20.22;100.00
57656;BME280;43482;53.334;6.744;2022-08-16T01:37:05;100529.22;;;20.21;100.00
57656;BME280;43482;53.334;6.744;2022-08-16T01:39:32;100534.00;;;20.19;100.00
57656;BME280;43482;53.334;6.744;2022-08-16T01:42:00;100539.50;;;20.24;100.00
57656;BME280;43482;53.334;6.744;2022-08-16T01:44:26;100542.41;;;20.22;100.00
57656;BME280;43482;53.334;6.744;2022-08-16T01:46:51;100543.81;;;20.25;100.00
57656;BME280;43482;53.334;6.744;2022-08-16T01:51:54;100536.50;;;20.13;100.00
57656;BME280;43482;53.334;6.744;2022-08-16T01:54:20;100542.03;;;20.19;100.00
57656;BME280;43482;53.334;6.744;2022-08-16T01:56:46;100539.41;;;20.12;100.00
57656;BME280;43482;53.334;6.744;2022-08-16T01:59:13;100532.88;;;20.08;100.00
57656;BME280;43482;53.334;6.744;2022-08-16T02:01:39;100537.38;;;20.07;100.00
57656;BME280;43482;53.334;6.744;2022-08-16T02:04:06;100539.47;;;20.05;100.00
57656;BME280;43482;53.334;6.744;2022-08-16T02:06:31;100524.94;;;19.94;100.00
57656;BME280;43482;53.334;6.744;2022-08-16T02:08:58;100534.16;;;19.99;100.00
57656;BME280;43482;53.334;6.744;2022-08-16T02:11:25;100526.19;;;19.92;100.00
57656;BME280;43482;53.334;6.744;2022-08-16T02:13:51;100536.69;;;19.93;100.00
57656;BME280;43482;53.334;6.744;2022-08-16T02:16:17;100518.22;;;19.85;100.00
57656;BME280;43482;53.334;6.744;2022-08-16T02:18:42;100537.34;;;19.89;100.00
57656;BME280;43482;53.334;6.744;2022-08-16T02:21:08;100528.56;;;19.82;100.00
57656;BME280;43482;53.334;6.744;2022-08-16T02:23:36;100534.78;;;19.76;100.00
57656;BME280;43482;53.334;6.744;2022-08-16T02:26:03;100514.06;;;19.64;100.00
57656;BME280;43482;53.334;6.744;2022-08-16T02:28:29;100537.50;;;19.69;100.00
57656;BME280;43482;53.334;6.744;2022-08-16T02:30:56;100532.41;;;19.61;100.00
57656;BME280;43482;53.334;6.744;2022-08-16T02:33:23;100531.84;;;19.52;100.00
57656;BME280;43482;53.334;6.744;2022-08-16T02:35:49;100527.19;;;19.41;100.00
57656;BME280;43482;53.334;6.744;2022-08-16T02:38:14;100530.94;;;19.33;100.00
57656;BME280;43482;53.334;6.744;2022-08-16T02:40:40;100532.63;;;19.27;100.00
57656;BME280;43482;53.334;6.744;2022-08-16T02:43:06;100531.81;;;19.20;100.00
57656;BME280;43482;53.334;6.744;2022-08-16T02:45:31;100547.41;;;19.30;100.00
57656;BME280;43482;53.334;6.744;2022-08-16T02:47:57;100547.22;;;19.31;100.00
57656;BME280;43482;53.334;6.744;2022-08-16T02:50:23;100543.50;;;19.32;100.00
57656;BME280;43482;53.334;6.744;2022-08-16T02:52:48;100541.41;;;19.35;100.00
57656;BME280;43482;53.334;6.744;2022-08-16T02:55:14;100546.56;;;19.36;100.00
57656;BME280;43482;53.334;6.744;2022-08-16T02:57:39;100544.25;;;19.40;100.00
57656;BME280;43482;53.334;6.744;2022-08-16T03:00:08;100543.66;;;19.38;100.00
57656;BME280;43482;53.334;6.744;2022-08-16T03:02:36;100542.22;;;19.35;100.00
57656;BME280;43482;53.334;6.744;2022-08-16T03:05:03;100542.03;;;19.37;100.00
57656;BME280;43482;53.334;6.744;2022-08-16T03:07:29;100545.72;;;19.36;100.00
57656;BME280;43482;53.334;6.744;2022-08-16T03:09:54;100540.81;;;19.32;100.00
57656;BME280;43482;53.334;6.744;2022-08-16T03:12:21;100529.34;;;19.25;100.00
57656;BME280;43482;53.334;6.744;2022-08-16T03:14:47;100530.31;;;19.31;100.00
57656;BME280;43482;53.334;6.744;2022-08-16T03:17:13;100529.06;;;19.33;100.00
57656;BME280;43482;53.334;6.744;2022-08-16T03:19:38;100526.13;;;19.42;100.00
57656;BME280;43482;53.334;6.744;2022-08-16T03:22:04;100537.84;;;19.47;100.00
57656;BME280;43482;53.334;6.744;2022-08-16T03:24:29;100539.50;;;19.42;100.00
57656;BME280;43482;53.334;6.744;2022-08-16T03:26:59;100542.03;;;19.37;100.00
57656;BME280;43482;53.334;6.744;2022-08-16T03:29:30;100538.13;;;19.32;100.00
57656;BME280;43482;53.334;6.744;2022-08-16T03:31:59;100539.19;;;19.31;100.00
57656;BME280;43482;53.334;6.744;2022-08-16T03:34:24;100536.28;;;19.33;100.00
57656;BME280;43482;53.334;6.744;2022-08-16T03:36:50;100534.41;;;19.33;100.00
57656;BME280;43482;53.334;6.744;2022-08-16T03:39:15;100531.75;;;19.33;100.00
57656;BME280;43482;53.334;6.744;2022-08-16T03:41:40;100524.41;;;19.22;100.00
57656;BME280;43482;53.334;6.744;2022-08-16T03:44:06;100535.06;;;19.29;100.00
57656;BME280;43482;53.334;6.744;2022-08-16T03:46:33;100536.97;;;19.22;100.00
57656;BME280;43482;53.334;6.744;2022-08-16T03:48:58;100517.91;;;19.05;100.00
57656;BME280;43482;53.334;6.744;2022-08-16T03:51:24;100542.59;;;19.07;100.00
57656;BME280;43482;53.334;6.744;2022-08-16T03:53:49;100543.44;;;19.01;100.00
57656;BME280;43482;53.334;6.744;2022-08-16T03:56:15;100543.44;;;19.01;100.00
57656;BME280;43482;53.334;6.744;2022-08-16T03:58:41;100536.47;;;19.00;100.00
57656;BME280;43482;53.334;6.744;2022-08-16T04:01:07;100541.22;;;18.98;100.00
57656;BME280;43482;53.334;6.744;2022-08-16T04:03:33;100525.63;;;18.88;100.00
57656;BME280;43482;53.334;6.744;2022-08-16T04:05:59;100526.81;;;18.92;100.00
57656;BME280;43482;53.334;6.744;2022-08-16T04:08:24;100527.06;;;18.90;100.00
57656;BME280;43482;53.334;6.744;2022-08-16T04:10:53;100543.50;;;18.87;100.00
57656;BME280;43482;53.334;6.744;2022-08-16T04:13:19;100543.13;;;18.84;100.00
57656;BME280;43482;53.334;6.744;2022-08-16T04:15:44;100534.91;;;18.79;100.00
57656;BME280;43482;53.334;6.744;2022-08-16T04:18:10;100538.63;;;18.78;100.00
57656;BME280;43482;53.334;6.744;2022-08-16T04:20:35;100532.03;;;18.80;100.00
57656;BME280;43482;53.334;6.744;2022-08-16T04:23:00;100531.22;;;18.80;100.00
57656;BME280;43482;53.334;6.744;2022-08-16T04:25:27;100531.81;;;18.82;100.00
57656;BME280;43482;53.334;6.744;2022-08-16T04:27:53;100530.41;;;18.79;100.00
57656;BME280;43482;53.334;6.744;2022-08-16T04:30:19;100532.63;;;18.82;100.00
57656;BME280;43482;53.334;6.744;2022-08-16T04:32:46;100535.09;;;18.84;100.00
57656;BME280;43482;53.334;6.744;2022-08-16T04:35:15;100544.34;;;18.88;100.00
57656;BME280;43482;53.334;6.744;2022-08-16T04:37:42;100529.16;;;18.82;100.00
57656;BME280;43482;53.334;6.744;2022-08-16T04:40:08;100537.75;;;18.90;100.00
57656;BME280;43482;53.334;6.744;2022-08-16T04:42:35;100525.88;;;18.80;100.00
57656;BME280;43482;53.334;6.744;2022-08-16T04:45:04;100540.66;;;18.82;100.00
57656;BME280;43482;53.334;6.744;2022-08-16T04:47:31;100545.59;;;18.79;100.00
57656;BME280;43482;53.334;6.744;2022-08-16T04:49:56;100544.94;;;18.77;100.00
57656;BME280;43482;53.334;6.744;2022-08-16T04:52:22;100556.72;;;18.69;100.00
57656;BME280;43482;53.334;6.744;2022-08-16T04:54:48;100551.78;;;18.66;100.00
57656;BME280;43482;53.334;6.744;2022-08-16T04:57:13;100565.38;;;18.64;100.00
57656;BME280;43482;53.334;6.744;2022-08-16T04:59:39;100562.47;;;18.66;100.00
57656;BME280;43482;53.334;6.744;2022-08-16T05:02:04;100560.41;;;18.68;100.00
57656;BME280;43482;53.334;6.744;2022-08-16T05:04:29;100566.19;;;18.65;100.00
57656;BME280;43482;53.334;6.744;2022-08-16T05:06:55;100564.97;;;18.61;100.00
57656;BME280;43482;53.334;6.744;2022-08-16T05:09:21;100563.09;;;18.61;100.00
57656;BME280;43482;53.334;6.744;2022-08-16T05:11:47;100575.22;;;18.64;100.00
57656;BME280;43482;53.334;6.744;2022-08-16T05:14:13;100556.31;;;18.59;100.00
57656;BME280;43482;53.334;6.744;2022-08-16T05:16:38;100567.81;;;18.66;100.00
57656;BME280;43482;53.334;6.744;2022-08-16T05:19:04;100567.41;;;18.69;100.00
57656;BME280;43482;53.334;6.744;2022-08-16T05:21:31;100565.72;;;18.75;100.00
57656;BME280;43482;53.334;6.744;2022-08-16T05:23:57;100555.28;;;18.66;100.00
57656;BME280;43482;53.334;6.744;2022-08-16T05:26:24;100563.50;;;18.78;100.00
57656;BME280;43482;53.334;6.744;2022-08-16T05:28:50;100566.16;;;18.78;100.00
57656;BME280;43482;53.334;6.744;2022-08-16T05:31:15;100572.53;;;18.84;100.00
57656;BME280;43482;53.334;6.744;2022-08-16T05:33:42;100563.06;;;18.81;100.00
57656;BME280;43482;53.334;6.744;2022-08-16T05:36:08;100560.75;;;18.91;100.00
57656;BME280;43482;53.334;6.744;2022-08-16T05:38:34;100563.25;;;18.93;100.00
57656;BME280;43482;53.334;6.744;2022-08-16T05:41:00;100564.84;;;19.01;100.00
57656;BME280;43482;53.334;6.744;2022-08-16T05:43:27;100561.56;;;18.99;100.00
57656;BME280;43482;53.334;6.744;2022-08-16T05:45:54;100562.78;;;19.03;100.00
57656;BME280;43482;53.334;6.744;2022-08-16T05:48:20;100557.03;;;18.99;100.00
57656;BME280;43482;53.334;6.744;2022-08-16T05:50:46;100575.06;;;19.17;100.00
57656;BME280;43482;53.334;6.744;2022-08-16T05:53:11;100568.25;;;19.21;100.00
57656;BME280;43482;53.334;6.744;2022-08-16T05:55:37;100560.03;;;19.16;100.00
57656;BME280;43482;53.334;6.744;2022-08-16T05:58:03;100570.50;;;19.24;100.00
57656;BME280;43482;53.334;6.744;2022-08-16T06:00:28;100580.78;;;19.27;100.00
57656;BME280;43482;53.334;6.744;2022-08-16T06:02:54;100575.00;;;19.30;100.00
57656;BME280;43482;53.334;6.744;2022-08-16T06:05:19;100579.69;;;19.35;100.00
57656;BME280;43482;53.334;6.744;2022-08-16T06:07:45;100591.75;;;19.51;100.00
57656;BME280;43482;53.334;6.744;2022-08-16T06:10:11;100586.78;;;19.55;100.00
57656;BME280;43482;53.334;6.744;2022-08-16T06:12:37;100590.00;;;19.70;100.00
57656;BME280;43482;53.334;6.744;2022-08-16T06:15:10;100592.78;;;19.88;100.00
57656;BME280;43482;53.334;6.744;2022-08-16T06:17:36;100595.56;;;20.00;100.00
57656;BME280;43482;53.334;6.744;2022-08-16T06:20:04;100579.66;;;20.05;100.00
57656;BME280;43482;53.334;6.744;2022-08-16T06:22:30;100587.16;;;20.22;100.00
57656;BME280;43482;53.334;6.744;2022-08-16T06:24:55;100593.78;;;20.38;100.00
57656;BME280;43482;53.334;6.744;2022-08-16T06:27:21;100603.19;;;20.47;100.00
57656;BME280;43482;53.334;6.744;2022-08-16T06:29:46;100599.53;;;20.41;100.00
57656;BME280;43482;53.334;6.744;2022-08-16T06:32:12;100591.56;;;20.53;100.00
57656;BME280;43482;53.334;6.744;2022-08-16T06:34:37;100585.56;;;20.58;100.00
57656;BME280;43482;53.334;6.744;2022-08-16T06:37:03;100571.88;;;20.66;100.00
57656;BME280;43482;53.334;6.744;2022-08-16T06:39:29;100599.38;;;20.98;100.00
57656;BME280;43482;53.334;6.744;2022-08-16T06:41:55;100595.94;;;20.91;99.75
57656;BME280;43482;53.334;6.744;2022-08-16T06:44:20;100606.06;;;21.07;99.39
57656;BME280;43482;53.334;6.744;2022-08-16T06:46:46;100594.06;;;21.10;97.55
57656;BME280;43482;53.334;6.744;2022-08-16T06:49:11;100603.44;;;21.19;97.95
57656;BME280;43482;53.334;6.744;2022-08-16T06:51:38;100610.88;;;21.54;97.23
57656;BME280;43482;53.334;6.744;2022-08-16T06:54:04;100605.50;;;21.54;95.32
57656;BME280;43482;53.334;6.744;2022-08-16T06:56:30;100611.25;;;21.69;95.01
57656;BME280;43482;53.334;6.744;2022-08-16T06:58:56;100610.16;;;22.01;93.98
57656;BME280;43482;53.334;6.744;2022-08-16T07:01:22;100618.16;;;22.43;91.39
57656;BME280;43482;53.334;6.744;2022-08-16T07:03:48;100621.19;;;22.58;90.63
57656;BME280;43482;53.334;6.744;2022-08-16T07:06:14;100615.03;;;23.10;88.91
57656;BME280;43482;53.334;6.744;2022-08-16T07:08:40;100620.13;;;23.35;87.16
57656;BME280;43482;53.334;6.744;2022-08-16T07:11:07;100617.41;;;23.64;85.21
57656;BME280;43482;53.334;6.744;2022-08-16T07:13:34;100610.47;;;24.13;83.91
57656;BME280;43482;53.334;6.744;2022-08-16T07:15:59;100609.94;;;24.50;81.69
57656;BME280;43482;53.334;6.744;2022-08-16T07:18:25;100622.47;;;24.78;78.90
57656;BME280;43482;53.334;6.744;2022-08-16T07:20:51;100611.53;;;24.68;79.99
57656;BME280;43482;53.334;6.744;2022-08-16T07:23:18;100610.41;;;25.08;77.66
57656;BME280;43482;53.334;6.744;2022-08-16T07:25:44;100623.31;;;25.23;77.67
57656;BME280;43482;53.334;6.744;2022-08-16T07:28:16;100620.50;;;25.67;74.40
57656;BME280;43482;53.334;6.744;2022-08-16T07:30:43;100618.72;;;25.78;73.08
57656;BME280;43482;53.334;6.744;2022-08-16T07:33:10;100606.19;;;25.94;73.41
57656;BME280;43482;53.334;6.744;2022-08-16T07:35:36;100614.34;;;26.89;71.04
57656;BME280;43482;53.334;6.744;2022-08-16T07:38:03;100622.53;;;26.99;69.83
57656;BME280;43482;53.334;6.744;2022-08-16T07:40:28;100613.19;;;27.48;66.40
57656;BME280;43482;53.334;6.744;2022-08-16T07:42:54;100618.13;;;27.82;68.10
57656;BME280;43482;53.334;6.744;2022-08-16T07:45:21;100608.63;;;27.74;66.16
57656;BME280;43482;53.334;6.744;2022-08-16T07:47:46;100611.84;;;28.43;64.73
57656;BME280;43482;53.334;6.744;2022-08-16T07:50:13;100619.47;;;28.41;63.38
57656;BME280;43482;53.334;6.744;2022-08-16T07:52:39;100617.84;;;27.58;63.23
57656;BME280;43482;53.334;6.744;2022-08-16T07:55:06;100622.72;;;27.61;64.59
57656;BME280;43482;53.334;6.744;2022-08-16T07:57:32;100629.28;;;27.85;63.50
57656;BME280;43482;53.334;6.744;2022-08-16T07:59:58;100630.06;;;27.76;63.36
57656;BME280;43482;53.334;6.744;2022-08-16T08:02:25;100631.16;;;28.00;63.40
57656;BME280;43482;53.334;6.744;2022-08-16T08:04:50;100630.38;;;28.10;63.49
57656;BME280;43482;53.334;6.744;2022-08-16T08:07:16;100632.50;;;28.39;63.37
57656;BME280;43482;53.334;6.744;2022-08-16T08:09:42;100641.13;;;28.71;62.65
57656;BME280;43482;53.334;6.744;2022-08-16T08:12:07;100643.03;;;29.41;58.36
57656;BME280;43482;53.334;6.744;2022-08-16T08:14:33;100651.63;;;29.98;58.33
57656;BME280;43482;53.334;6.744;2022-08-16T08:16:59;100651.19;;;30.73;56.58
57656;BME280;43482;53.334;6.744;2022-08-16T08:19:25;100650.13;;;30.45;55.51
57656;BME280;43482;53.334;6.744;2022-08-16T08:21:51;100646.31;;;29.38;56.85
57656;BME280;43482;53.334;6.744;2022-08-16T08:24:20;100640.44;;;29.21;59.99
57656;BME280;43482;53.334;6.744;2022-08-16T08:26:46;100643.19;;;29.60;58.76
57656;BME280;43482;53.334;6.744;2022-08-16T08:29:11;100638.44;;;29.81;56.56
57656;BME280;43482;53.334;6.744;2022-08-16T08:31:37;100645.03;;;29.25;57.63
57656;BME280;43482;53.334;6.744;2022-08-16T08:34:06;100637.94;;;29.74;58.20
57656;BME280;43482;53.334;6.744;2022-08-16T08:36:33;100637.78;;;29.55;56.49
57656;BME280;43482;53.334;6.744;2022-08-16T08:39:00;100635.16;;;28.75;58.55
57656;BME280;43482;53.334;6.744;2022-08-16T08:41:25;100640.63;;;28.59;58.03
57656;BME280;43482;53.334;6.744;2022-08-16T08:43:53;100639.00;;;28.43;59.27
57656;BME280;43482;53.334;6.744;2022-08-16T08:46:19;100646.22;;;29.53;55.88
57656;BME280;43482;53.334;6.744;2022-08-16T08:48:45;100652.44;;;29.99;56.70
57656;BME280;43482;53.334;6.744;2022-08-16T08:51:12;100653.63;;;30.51;55.48
57656;BME280;43482;53.334;6.744;2022-08-16T08:53:37;100653.00;;;29.96;56.01
57656;BME280;43482;53.334;6.744;2022-08-16T08:56:04;100656.38;;;30.46;56.50
57656;BME280;43482;53.334;6.744;2022-08-16T08:58:32;100670.03;;;32.13;52.41
57656;BME280;43482;53.334;6.744;2022-08-16T09:00:58;100649.66;;;32.52;52.12
57656;BME280;43482;53.334;6.744;2022-08-16T09:03:23;100652.72;;;32.78;50.29
57656;BME280;43482;53.334;6.744;2022-08-16T09:05:50;100663.94;;;33.68;48.78
57656;BME280;43482;53.334;6.744;2022-08-16T09:08:15;100662.22;;;31.87;50.11
57656;BME280;43482;53.334;6.744;2022-08-16T09:10:41;100650.63;;;32.14;52.46
57656;BME280;43482;53.334;6.744;2022-08-16T09:13:07;100665.66;;;33.28;49.82
57656;BME280;43482;53.334;6.744;2022-08-16T09:15:32;100667.78;;;32.01;50.32
57656;BME280;43482;53.334;6.744;2022-08-16T09:17:58;100658.19;;;32.17;51.74
57656;BME280;43482;53.334;6.744;2022-08-16T09:20:26;100661.81;;;33.88;48.91
57656;BME280;43482;53.334;6.744;2022-08-16T09:22:53;100661.34;;;34.39;45.60
57656;BME280;43482;53.334;6.744;2022-08-16T09:25:19;100661.38;;;33.94;46.91
57656;BME280;43482;53.334;6.744;2022-08-16T09:27:44;100664.72;;;34.36;46.16
57656;BME280;43482;53.334;6.744;2022-08-16T09:30:10;100667.47;;;33.69;47.07
57656;BME280;43482;53.334;6.744;2022-08-16T09:32:35;100665.91;;;33.40;48.02
57656;BME280;43482;53.334;6.744;2022-08-16T09:35:02;100662.13;;;34.09;47.67
57656;BME280;43482;53.334;6.744;2022-08-16T09:37:30;100654.19;;;34.61;46.22
57656;BME280;43482;53.334;6.744;2022-08-16T09:39:56;100664.25;;;34.34;45.89
57656;BME280;43482;53.334;6.744;2022-08-16T09:42:22;100663.19;;;33.40;47.07
57656;BME280;43482;53.334;6.744;2022-08-16T09:44:47;100661.38;;;33.94;45.29
57656;BME280;43482;53.334;6.744;2022-08-16T09:47:13;100674.00;;;31.26;49.21
57656;BME280;43482;53.334;6.744;2022-08-16T09:49:38;100654.34;;;32.79;47.87
57656;BME280;43482;53.334;6.744;2022-08-16T09:52:04;100659.19;;;34.05;46.72
57656;BME280;43482;53.334;6.744;2022-08-16T09:54:29;100663.50;;;34.82;43.56
57656;BME280;43482;53.334;6.744;2022-08-16T09:56:55;100651.34;;;34.75;44.74
57656;BME280;43482;53.334;6.744;2022-08-16T09:59:22;100661.19;;;34.67;46.75
57656;BME280;43482;53.334;6.744;2022-08-16T10:01:49;100663.19;;;35.01;45.28
57656;BME280;43482;53.334;6.744;2022-08-16T10:04:16;100673.97;;;35.64;45.14
57656;BME280;43482;53.334;6.744;2022-08-16T10:06:42;100659.69;;;36.05;42.87
57656;BME280;43482;53.334;6.744;2022-08-16T10:09:11;100672.13;;;36.03;42.94
57656;BME280;43482;53.334;6.744;2022-08-16T10:11:38;100675.69;;;35.25;42.59
57656;BME280;43482;53.334;6.744;2022-08-16T10:14:23;100670.38;;;36.63;43.06
57656;BME280;43482;53.334;6.744;2022-08-16T10:16:49;100679.72;;;35.97;42.44
57656;BME280;43482;53.334;6.744;2022-08-16T10:19:15;100675.41;;;35.88;41.95
57656;BME280;43482;53.334;6.744;2022-08-16T10:21:41;100675.19;;;34.66;43.81
57656;BME280;43482;53.334;6.744;2022-08-16T10:24:07;100682.47;;;35.28;45.41
57656;BME280;43482;53.334;6.744;2022-08-16T10:26:34;100679.38;;;37.32;42.70
57656;BME280;43482;53.334;6.744;2022-08-16T10:29:00;100673.97;;;36.84;41.87
57656;BME280;43482;53.334;6.744;2022-08-16T10:31:26;100671.38;;;36.88;42.15
57656;BME280;43482;53.334;6.744;2022-08-16T10:33:51;100680.41;;;36.59;42.50
57656;BME280;43482;53.334;6.744;2022-08-16T10:36:18;100682.13;;;37.32;40.52
57656;BME280;43482;53.334;6.744;2022-08-16T10:38:43;100683.75;;;38.54;39.47
57656;BME280;43482;53.334;6.744;2022-08-16T10:41:10;100684.66;;;37.37;38.96
57656;BME280;43482;53.334;6.744;2022-08-16T10:43:37;100681.66;;;36.23;42.92
57656;BME280;43482;53.334;6.744;2022-08-16T10:46:04;100680.72;;;36.96;39.96
57656;BME280;43482;53.334;6.744;2022-08-16T10:48:31;100686.50;;;37.33;42.10
57656;BME280;43482;53.334;6.744;2022-08-16T10:50:59;100698.19;;;38.38;39.96
57656;BME280;43482;53.334;6.744;2022-08-16T10:53:26;100694.66;;;39.12;37.38
57656;BME280;43482;53.334;6.744;2022-08-16T10:55:52;100700.53;;;39.22;39.09
57656;BME280;43482;53.334;6.744;2022-08-16T10:58:17;100690.91;;;37.88;39.11
57656;BME280;43482;53.334;6.744;2022-08-16T11:00:43;100699.28;;;34.86;43.88
57656;BME280;43482;53.334;6.744;2022-08-16T11:03:09;100702.84;;;35.96;43.56
57656;BME280;43482;53.334;6.744;2022-08-16T11:05:37;100699.44;;;37.32;40.28
57656;BME280;43482;53.334;6.744;2022-08-16T11:08:04;100706.88;;;38.28;41.39
57656;BME280;43482;53.334;6.744;2022-08-16T11:10:34;100716.16;;;38.23;39.94
57656;BME280;43482;53.334;6.744;2022-08-16T11:13:00;100711.13;;;38.25;41.28
57656;BME280;43482;53.334;6.744;2022-08-16T11:15:26;100717.88;;;38.86;38.92
57656;BME280;43482;53.334;6.744;2022-08-16T11:17:53;100707.38;;;39.41;39.89
57656;BME280;43482;53.334;6.744;2022-08-16T11:20:18;100717.44;;;38.26;40.21
57656;BME280;43482;53.334;6.744;2022-08-16T11:22:48;100719.97;;;39.14;39.99
57656;BME280;43482;53.334;6.744;2022-08-16T11:25:15;100727.50;;;40.38;38.34
57656;BME280;43482;53.334;6.744;2022-08-16T11:27:41;100723.72;;;41.10;36.10
57656;BME280;43482;53.334;6.744;2022-08-16T11:30:09;100720.97;;;38.84;37.88
57656;BME280;43482;53.334;6.744;2022-08-16T11:32:35;100714.69;;;38.26;39.85
57656;BME280;43482;53.334;6.744;2022-08-16T11:35:08;100718.47;;;38.92;39.76
57656;BME280;43482;53.334;6.744;2022-08-16T11:37:35;100726.81;;;38.58;40.26
57656;BME280;43482;53.334;6.744;2022-08-16T11:40:03;100731.44;;;37.16;40.93
57656;BME280;43482;53.334;6.744;2022-08-16T11:42:29;100722.97;;;38.38;42.04
57656;BME280;43482;53.334;6.744;2022-08-16T11:44:54;100736.34;;;39.59;38.94
57656;BME280;43482;53.334;6.744;2022-08-16T11:47:19;100724.13;;;40.17;38.27
57656;BME280;43482;53.334;6.744;2022-08-16T11:49:45;100746.31;;;40.96;37.48
57656;BME280;43482;53.334;6.744;2022-08-16T11:52:10;100748.31;;;38.53;38.67
57656;BME280;43482;53.334;6.744;2022-08-16T11:54:36;100724.53;;;37.01;41.41
57656;BME280;43482;53.334;6.744;2022-08-16T11:57:02;100746.03;;;38.21;41.90
57656;BME280;43482;53.334;6.744;2022-08-16T11:59:28;100755.47;;;37.57;39.28
57656;BME280;43482;53.334;6.744;2022-08-16T12:01:55;100726.78;;;37.58;40.94
57656;BME280;43482;53.334;6.744;2022-08-16T12:04:20;100747.38;;;37.61;41.64
57656;BME280;43482;53.334;6.744;2022-08-16T12:06:46;100748.41;;;38.11;41.72
57656;BME280;43482;53.334;6.744;2022-08-16T12:09:12;100742.72;;;38.86;41.24
57656;BME280;43482;53.334;6.744;2022-08-16T12:11:37;100743.03;;;39.34;38.98
57656;BME280;43482;53.334;6.744;2022-08-16T12:14:04;100754.75;;;39.55;38.35
57656;BME280;43482;53.334;6.744;2022-08-16T12:16:32;100749.66;;;37.59;41.09
57656;BME280;43482;53.334;6.744;2022-08-16T12:18:58;100751.38;;;37.63;41.39
57656;BME280;43482;53.334;6.744;2022-08-16T12:21:24;100748.34;;;37.77;41.15
57656;BME280;43482;53.334;6.744;2022-08-16T12:23:49;100753.47;;;37.87;41.91
57656;BME280;43482;53.334;6.744;2022-08-16T12:26:14;100752.34;;;38.55;40.28
57656;BME280;43482;53.334;6.744;2022-08-16T12:28:41;100756.75;;;38.81;40.74
57656;BME280;43482;53.334;6.744;2022-08-16T12:31:06;100756.63;;;39.02;39.38
57656;BME280;43482;53.334;6.744;2022-08-16T12:33:32;100749.00;;;39.48;39.38
57656;BME280;43482;53.334;6.744;2022-08-16T12:35:57;100759.38;;;38.89;39.19
57656;BME280;43482;53.334;6.744;2022-08-16T12:38:23;100758.78;;;37.42;39.65
57656;BME280;43482;53.334;6.744;2022-08-16T12:40:49;100758.06;;;36.94;40.82
57656;BME280;43482;53.334;6.744;2022-08-16T12:43:16;100757.47;;;37.48;41.89
57656;BME280;43482;53.334;6.744;2022-08-16T12:45:47;100754.66;;;38.20;40.20